createdAt,value
2022-08-03T00:00:27.707Z,2.00
2022-08-03T00:03:03.540Z,1.95
2022-08-03T00:05:33.106Z,2.10
2022-08-03T00:08:00.822Z,2.20
2022-08-03T00:10:28.436Z,2.00
2022-08-03T00:12:55.581Z,2.00
2022-08-03T00:15:22.475Z,2.05
2022-08-03T00:17:53.051Z,1.42
2022-08-03T00:20:22.141Z,1.80
2022-08-03T00:22:49.786Z,1.98
2022-08-03T00:25:16.973Z,1.98
2022-08-03T00:27:44.069Z,1.63
2022-08-03T00:30:11.177Z,1.30
2022-08-03T00:32:40.045Z,1.70
2022-08-03T00:35:32.550Z,1.90
2022-08-03T00:37:59.810Z,2.10
2022-08-03T00:40:26.925Z,1.83
2022-08-03T00:42:56.519Z,1.67
2022-08-03T00:45:25.797Z,1.90
2022-08-03T00:47:54.255Z,1.52
2022-08-03T00:50:23.416Z,2.10
2022-08-03T00:52:52.541Z,1.85
2022-08-03T00:55:19.839Z,1.90
2022-08-03T00:57:47.319Z,2.00
2022-08-03T01:00:18.212Z,1.75
2022-08-03T01:02:45.656Z,2.00
2022-08-03T01:05:12.991Z,2.10
2022-08-03T01:07:59.943Z,1.95
2022-08-03T01:10:38.744Z,2.40
2022-08-03T01:14:01.734Z,2.08
2022-08-03T01:16:35.982Z,1.80
2022-08-03T01:19:28.839Z,1.60
2022-08-03T01:22:31.344Z,1.98
2022-08-03T01:25:14.961Z,1.98
2022-08-03T01:27:58.901Z,2.05
2022-08-03T01:30:32.214Z,1.73
2022-08-03T01:33:03.870Z,2.28
2022-08-03T01:36:01.048Z,2.63
2022-08-03T01:38:42.339Z,2.13
2022-08-03T01:41:12.970Z,2.03
2022-08-03T01:43:58.987Z,2.10
2022-08-03T01:46:31.314Z,2.13
2022-08-03T01:48:58.997Z,2.22
2022-08-03T01:51:56.565Z,2.50
2022-08-03T01:54:14.189Z,2.38
2022-08-03T01:56:42.843Z,2.40
2022-08-03T01:59:10.487Z,2.22
2022-08-03T02:02:16.033Z,1.90
2022-08-03T02:04:25.924Z,1.80
2022-08-03T02:07:01.651Z,1.92
2022-08-03T02:09:31.013Z,2.40
2022-08-03T02:11:58.981Z,2.35
2022-08-03T02:14:26.362Z,2.22
2022-08-03T02:16:54.301Z,2.10
2022-08-03T02:19:21.876Z,2.33
2022-08-03T02:21:56.374Z,2.22
2022-08-03T02:24:29.472Z,2.70
2022-08-03T02:26:56.943Z,2.50
2022-08-03T02:29:39.607Z,2.38
2022-08-03T02:32:15.160Z,2.65
2022-08-03T02:34:45.425Z,2.30
2022-08-03T02:37:13.283Z,1.67
2022-08-03T02:39:41.047Z,1.88
2022-08-03T02:42:09.819Z,4.43
2022-08-03T02:44:41.663Z,1.90
2022-08-03T02:47:11.180Z,2.00
2022-08-03T02:49:50.751Z,1.75
2022-08-03T02:52:23.855Z,2.08
2022-08-03T02:54:53.868Z,1.52
2022-08-03T02:57:21.900Z,2.10
2022-08-03T02:59:49.110Z,2.05
2022-08-03T03:02:17.494Z,1.90
2022-08-03T03:05:52.989Z,2.08
2022-08-03T03:07:34.692Z,2.13
2022-08-03T03:10:20.961Z,2.22
2022-08-03T03:12:48.848Z,2.63
2022-08-03T03:15:15.735Z,2.38
2022-08-03T03:17:43.474Z,2.85
2022-08-03T03:20:10.933Z,2.67
2022-08-03T03:22:38.268Z,2.70
2022-08-03T03:25:07.821Z,2.40
2022-08-03T03:27:34.931Z,2.25
2022-08-03T03:30:02.821Z,2.35
2022-08-03T03:32:30.474Z,2.60
2022-08-03T03:34:59.285Z,2.90
2022-08-03T03:37:29.475Z,2.47
2022-08-03T03:39:56.584Z,2.40
2022-08-03T03:42:23.663Z,2.80
2022-08-03T03:44:50.839Z,2.65
2022-08-03T03:47:18.417Z,2.38
2022-08-03T03:49:59.508Z,2.47
2022-08-03T03:52:26.641Z,2.58
2022-08-03T03:54:56.386Z,2.42
2022-08-03T03:57:27.935Z,2.33
2022-08-03T03:59:54.965Z,2.55
2022-08-03T04:02:21.866Z,2.53
2022-08-03T04:05:07.982Z,2.60
2022-08-03T04:08:19.046Z,2.88
2022-08-03T04:11:00.877Z,2.83
2022-08-03T04:13:35.608Z,2.80
2022-08-03T04:16:03.495Z,3.08
2022-08-03T04:18:32.948Z,3.22
2022-08-03T04:21:03.630Z,2.83
2022-08-03T04:23:34.631Z,3.05
2022-08-03T04:26:03.685Z,3.25
2022-08-03T04:28:32.207Z,2.80
2022-08-03T04:31:00.648Z,3.08
2022-08-03T04:33:30.480Z,3.75
2022-08-03T04:36:02.928Z,3.22
2022-08-03T04:38:31.888Z,3.65
2022-08-03T04:40:59.927Z,3.75
2022-08-03T04:43:28.075Z,3.67
2022-08-03T04:45:55.225Z,3.53
2022-08-03T04:48:22.528Z,3.42
2022-08-03T04:50:49.469Z,3.70
2022-08-03T04:53:17.681Z,3.63
2022-08-03T04:55:44.882Z,3.40
2022-08-03T04:58:12.693Z,3.42
2022-08-03T05:00:39.635Z,3.00
2022-08-03T05:03:19.518Z,3.10
2022-08-03T05:06:09.858Z,3.35
2022-08-03T05:08:46.053Z,2.90
2022-08-03T05:11:15.526Z,3.20
2022-08-03T05:13:43.534Z,2.90
2022-08-03T05:16:10.577Z,2.30
2022-08-03T05:18:38.010Z,2.58
2022-08-03T05:21:05.196Z,2.58
2022-08-03T05:23:32.126Z,2.80
2022-08-03T05:25:59.096Z,2.42
2022-08-03T05:28:26.232Z,1.90
2022-08-03T05:30:53.158Z,2.00
2022-08-03T05:33:20.039Z,2.30
2022-08-03T05:36:00.925Z,2.00
2022-08-03T05:38:35.134Z,1.90
2022-08-03T05:41:21.755Z,1.60
2022-08-03T05:43:52.445Z,1.23
2022-08-03T05:46:20.966Z,1.30
2022-08-03T05:48:48.127Z,1.35
2022-08-03T05:51:15.073Z,2.72
2022-08-03T05:53:42.867Z,1.67
2022-08-03T05:56:14.392Z,1.15
2022-08-03T05:58:46.443Z,1.33
2022-08-03T06:01:13.669Z,1.35
2022-08-03T06:03:40.605Z,0.93
2022-08-03T06:06:08.216Z,1.02
2022-08-03T06:08:35.450Z,1.02
2022-08-03T06:11:02.407Z,1.15
2022-08-03T06:13:29.906Z,1.13
2022-08-03T06:15:56.763Z,1.08
2022-08-03T06:18:24.748Z,0.90
2022-08-03T06:20:52.478Z,1.05
2022-08-03T06:23:19.829Z,1.10
2022-08-03T06:25:47.626Z,1.00
2022-08-03T06:31:02.271Z,1.27
2022-08-03T06:34:30.680Z,1.00
2022-08-03T06:36:16.808Z,0.90
2022-08-03T06:38:43.949Z,0.63
2022-08-03T06:41:10.854Z,0.90
2022-08-03T06:44:02.667Z,1.10
2022-08-03T06:46:25.029Z,1.10
2022-08-03T06:48:53.246Z,1.02
2022-08-03T06:51:20.224Z,1.63
2022-08-03T06:53:47.400Z,1.10
2022-08-03T06:56:14.502Z,0.95
2022-08-03T06:58:41.444Z,1.13
2022-08-03T07:01:08.648Z,0.90
2022-08-03T07:03:35.548Z,0.98
2022-08-03T07:06:02.638Z,0.80
2022-08-03T07:08:33.568Z,1.05
2022-08-03T07:11:01.456Z,1.20
2022-08-03T07:13:28.387Z,1.02
2022-08-03T07:15:56.580Z,1.00
2022-08-03T07:18:27.617Z,1.02
2022-08-03T07:20:58.214Z,1.10
2022-08-03T07:23:25.782Z,1.00
2022-08-03T07:25:53.042Z,0.98
2022-08-03T07:28:20.543Z,0.80
2022-08-03T07:30:47.843Z,0.98
2022-08-03T07:33:15.328Z,1.20
2022-08-03T07:35:42.797Z,1.05
2022-08-03T07:38:09.692Z,1.10
2022-08-03T07:40:36.624Z,0.90
2022-08-03T07:43:03.949Z,1.08
2022-08-03T07:45:31.947Z,1.13
2022-08-03T07:47:58.927Z,1.10
2022-08-03T07:50:26.609Z,0.95
2022-08-03T07:52:56.054Z,1.30
2022-08-03T07:55:24.494Z,1.13
2022-08-03T07:58:04.831Z,1.10
2022-08-03T08:00:32.154Z,1.02
2022-08-03T08:02:59.229Z,1.10
2022-08-03T08:05:26.555Z,1.33
2022-08-03T08:07:53.682Z,1.02
2022-08-03T08:10:20.859Z,1.38
2022-08-03T08:12:48.384Z,0.88
2022-08-03T08:15:15.291Z,1.20
2022-08-03T08:17:53.920Z,1.08
2022-08-03T08:20:28.104Z,1.13
2022-08-03T08:23:03.556Z,1.20
2022-08-03T08:25:39.493Z,1.17
2022-08-03T08:28:29.286Z,1.02
2022-08-03T08:30:56.425Z,1.02
2022-08-03T08:33:37.212Z,1.17
2022-08-03T08:36:14.738Z,1.17
2022-08-03T08:38:44.700Z,0.82
2022-08-03T08:41:12.860Z,1.38
2022-08-03T08:43:39.706Z,1.05
2022-08-03T08:46:10.381Z,1.40
2022-08-03T08:48:41.090Z,1.65
2022-08-03T08:51:09.348Z,1.33
2022-08-03T08:53:38.425Z,1.40
2022-08-03T08:56:05.808Z,1.40
2022-08-03T08:58:38.923Z,1.25
2022-08-03T09:01:06.009Z,1.42
2022-08-03T09:03:34.454Z,1.50
2022-08-03T09:06:02.353Z,1.30
2022-08-03T09:08:31.121Z,1.30
2022-08-03T09:10:58.477Z,1.27
2022-08-03T09:13:25.367Z,1.58
2022-08-03T09:16:15.524Z,0.90
2022-08-03T09:18:47.560Z,1.02
2022-08-03T09:21:30.538Z,0.90
2022-08-03T09:24:03.676Z,1.10
2022-08-03T09:26:35.744Z,1.05
2022-08-03T09:29:13.487Z,1.10
2022-08-03T09:31:46.488Z,1.05
2022-08-03T09:34:17.909Z,1.45
2022-08-03T09:36:49.479Z,1.00
2022-08-03T09:39:18.932Z,1.15
2022-08-03T09:41:48.201Z,1.02
2022-08-03T09:44:24.390Z,0.95
2022-08-03T09:46:56.957Z,0.90
2022-08-03T09:49:24.968Z,1.10
2022-08-03T09:52:32.330Z,1.08
2022-08-03T09:54:41.398Z,1.00
2022-08-03T09:57:08.272Z,1.10
2022-08-03T09:59:35.727Z,0.90
2022-08-03T10:02:21.667Z,1.00
2022-08-03T10:04:50.083Z,1.10
2022-08-03T10:07:17.671Z,1.00
2022-08-03T10:10:29.347Z,1.20
2022-08-03T10:12:48.148Z,1.20
2022-08-03T10:16:23.785Z,0.90
2022-08-03T10:18:02.315Z,1.20
2022-08-03T10:20:29.288Z,1.20
2022-08-03T10:22:56.526Z,1.30
2022-08-03T10:25:24.556Z,1.27
2022-08-03T10:28:04.362Z,1.13
2022-08-03T10:30:33.590Z,1.20
2022-08-03T10:33:15.288Z,1.27
2022-08-03T10:35:58.312Z,1.25
2022-08-03T10:38:40.608Z,1.38
2022-08-03T10:41:08.838Z,1.00
2022-08-03T10:44:09.806Z,1.10
2022-08-03T10:46:44.134Z,1.38
2022-08-03T10:49:14.324Z,1.20
2022-08-03T10:51:43.031Z,1.48
2022-08-03T10:54:59.666Z,1.08
2022-08-03T10:57:49.866Z,1.30
2022-08-03T11:00:21.551Z,1.25
2022-08-03T11:03:03.262Z,1.30
2022-08-03T11:05:31.912Z,1.30
2022-08-03T11:08:37.305Z,1.25
2022-08-03T11:11:25.162Z,1.42
2022-08-03T11:13:59.352Z,1.25
2022-08-03T11:16:27.687Z,0.90
2022-08-03T11:18:59.907Z,1.05
2022-08-03T11:21:51.124Z,1.20
2022-08-03T11:24:36.819Z,1.20
2022-08-03T11:27:18.965Z,1.20
2022-08-03T11:29:59.252Z,1.20
2022-08-03T11:32:38.458Z,1.20
2022-08-03T11:35:17.524Z,1.27
2022-08-03T11:38:04.330Z,1.10
2022-08-03T11:40:47.101Z,1.35
2022-08-03T11:43:31.394Z,1.30
2022-08-03T11:46:29.748Z,1.27
2022-08-03T11:49:09.877Z,1.30
2022-08-03T11:51:38.856Z,1.30
2022-08-03T11:54:07.058Z,1.30
2022-08-03T11:56:45.540Z,1.15
2022-08-03T11:59:20.768Z,2.33
2022-08-03T12:01:48.428Z,1.42
2022-08-03T12:04:16.421Z,1.27
2022-08-03T12:06:59.300Z,1.23
2022-08-03T12:09:26.757Z,1.48
2022-08-03T12:12:00.322Z,1.38
2022-08-03T12:14:49.816Z,1.40
2022-08-03T12:17:17.106Z,1.13
2022-08-03T12:19:44.748Z,1.23
2022-08-03T12:22:11.648Z,1.30
2022-08-03T12:24:42.725Z,1.48
2022-08-03T12:27:10.011Z,1.23
2022-08-03T12:29:36.918Z,1.20
2022-08-03T12:32:04.065Z,1.40
2022-08-03T12:34:48.208Z,1.30
2022-08-03T12:37:29.244Z,1.05
2022-08-03T12:40:09.490Z,1.25
2022-08-03T12:42:39.225Z,1.30
2022-08-03T12:45:27.371Z,1.40
2022-08-03T12:48:01.625Z,1.20
2022-08-03T12:50:34.500Z,1.40
2022-08-03T12:53:05.275Z,1.20
2022-08-03T12:55:57.141Z,1.27
2022-08-03T12:58:35.007Z,1.48
2022-08-03T13:01:09.317Z,1.40
2022-08-03T13:03:49.838Z,1.30
2022-08-03T13:06:20.841Z,1.33
2022-08-03T13:08:51.613Z,1.30
2022-08-03T13:11:20.650Z,1.30
2022-08-03T13:13:47.676Z,1.40
2022-08-03T13:16:19.032Z,1.30
2022-08-03T13:18:49.107Z,1.40
2022-08-03T13:21:16.605Z,1.25
2022-08-03T13:23:44.163Z,1.23
2022-08-03T13:26:11.978Z,1.20
2022-08-03T13:28:39.603Z,1.60
2022-08-03T13:31:07.110Z,1.40
2022-08-03T13:33:34.396Z,1.38
2022-08-03T13:36:01.277Z,1.40
2022-08-03T13:38:28.517Z,1.30
2022-08-03T13:40:55.985Z,1.63
2022-08-03T13:43:22.801Z,1.33
2022-08-03T13:45:53.587Z,1.27
2022-08-03T13:48:37.332Z,1.33
2022-08-03T13:51:22.200Z,1.30
2022-08-03T13:53:51.310Z,1.27
2022-08-03T13:56:18.395Z,1.15
2022-08-03T13:58:45.275Z,1.58
2022-08-03T14:01:12.515Z,1.13
2022-08-03T14:03:39.398Z,1.30
2022-08-03T14:06:06.370Z,1.30
2022-08-03T14:08:33.764Z,1.42
2022-08-03T14:11:00.631Z,1.73
2022-08-03T14:13:27.546Z,1.20
2022-08-03T14:15:55.724Z,1.30
2022-08-03T14:18:27.937Z,1.40
2022-08-03T14:21:05.811Z,1.30
2022-08-03T14:23:34.367Z,1.70
2022-08-03T14:26:01.428Z,1.52
2022-08-03T14:28:28.741Z,1.45
2022-08-03T14:30:56.273Z,1.20
2022-08-03T14:33:23.603Z,1.63
2022-08-03T14:35:51.381Z,1.48
2022-08-03T14:38:18.584Z,1.40
2022-08-03T14:40:45.855Z,1.70
2022-08-03T14:43:13.301Z,1.55
2022-08-03T14:45:41.148Z,1.50
2022-08-03T14:50:30.174Z,1.42
2022-08-03T14:50:56.744Z,1.63
2022-08-03T14:53:24.460Z,1.40
2022-08-03T14:55:52.933Z,1.40
2022-08-03T14:58:22.028Z,1.42
2022-08-03T15:00:50.937Z,1.25
2022-08-03T15:03:21.535Z,1.50
2022-08-03T15:05:48.964Z,1.50
2022-08-03T15:08:16.292Z,1.75
2022-08-03T15:10:45.260Z,2.45
2022-08-03T15:13:13.291Z,1.50
2022-08-03T15:15:40.857Z,1.25
2022-08-03T15:18:07.867Z,1.42
2022-08-03T15:20:50.164Z,1.20
2022-08-03T15:23:18.286Z,1.50
2022-08-03T15:26:28.791Z,1.83
2022-08-03T15:28:33.294Z,1.48
2022-08-03T15:31:00.916Z,1.60
2022-08-03T15:33:28.595Z,1.50
2022-08-03T15:35:56.657Z,1.45
2022-08-03T15:38:25.804Z,1.38
2022-08-03T15:40:56.270Z,1.30
2022-08-03T15:43:24.006Z,1.50
2022-08-03T15:46:18.981Z,1.70
2022-08-03T15:48:39.184Z,1.50
2022-08-03T15:51:06.496Z,1.40
2022-08-03T15:53:33.761Z,1.30
2022-08-03T15:56:03.348Z,1.45
2022-08-03T15:59:04.533Z,1.20
2022-08-03T16:01:21.544Z,1.50
2022-08-03T16:03:48.512Z,1.42
2022-08-03T16:06:15.983Z,1.30
2022-08-03T16:08:43.486Z,1.52
2022-08-03T16:11:11.282Z,1.60
2022-08-03T16:14:13.209Z,1.55
2022-08-03T16:16:25.750Z,1.42
2022-08-03T16:18:52.629Z,1.73
2022-08-03T16:21:21.762Z,1.75
2022-08-03T16:23:51.559Z,1.95
2022-08-03T16:26:18.398Z,1.52
2022-08-03T16:28:45.250Z,1.63
2022-08-03T16:31:12.700Z,1.40
2022-08-03T16:33:40.233Z,1.60
2022-08-03T16:36:07.186Z,1.30
2022-08-03T16:38:34.493Z,1.73
2022-08-03T16:41:01.365Z,1.48
2022-08-03T16:43:28.441Z,1.42
2022-08-03T16:45:55.523Z,1.33
2022-08-03T16:48:22.450Z,2.20
2022-08-03T16:50:49.461Z,1.63
2022-08-03T16:53:18.644Z,1.30
2022-08-03T16:56:00.487Z,1.90
2022-08-03T16:58:41.784Z,2.70
2022-08-03T17:01:21.678Z,3.90
2022-08-03T17:04:02.250Z,1.60
2022-08-03T17:06:36.620Z,1.48
2022-08-03T17:09:09.440Z,1.42
2022-08-03T17:11:46.891Z,1.25
2022-08-03T17:14:16.748Z,1.48
2022-08-03T17:16:52.586Z,1.40
2022-08-03T17:19:24.004Z,1.38
2022-08-03T17:22:04.591Z,1.38
2022-08-03T17:24:34.429Z,1.30
2022-08-03T17:27:08.691Z,1.40
2022-08-03T17:29:44.885Z,1.50
2022-08-03T17:32:18.135Z,1.40
2022-08-03T17:34:49.193Z,1.30
2022-08-03T17:37:50.763Z,1.40
2022-08-03T17:40:04.474Z,1.67
2022-08-03T17:42:33.149Z,1.67
2022-08-03T17:45:03.933Z,1.70
2022-08-03T17:47:42.370Z,1.40
2022-08-03T17:50:24.781Z,1.42
2022-08-03T17:53:24.345Z,1.40
2022-08-03T17:56:40.837Z,1.63
2022-08-03T17:59:50.924Z,1.65
2022-08-03T18:02:47.766Z,2.10
2022-08-03T18:05:18.007Z,2.03
2022-08-03T18:08:01.721Z,1.60
2022-08-03T18:10:34.485Z,1.50
2022-08-03T18:13:15.230Z,1.70
2022-08-03T18:16:02.568Z,1.73
2022-08-03T18:18:35.496Z,1.33
2022-08-03T18:21:06.821Z,1.60
2022-08-03T18:23:37.779Z,1.40
2022-08-03T18:26:10.716Z,1.55
2022-08-03T18:28:39.290Z,1.70
2022-08-03T18:31:07.447Z,1.60
2022-08-03T18:34:16.977Z,1.60
2022-08-03T18:36:30.466Z,1.25
2022-08-03T18:39:00.141Z,1.63
2022-08-03T18:41:32.921Z,2.08
2022-08-03T18:44:08.265Z,1.80
2022-08-03T18:46:49.681Z,1.65
2022-08-03T18:49:33.922Z,1.80
2022-08-03T18:52:37.307Z,2.05
2022-08-03T18:55:19.918Z,1.52
2022-08-03T18:58:01.748Z,1.73
2022-08-03T19:00:42.462Z,2.03
2022-08-03T19:03:24.197Z,1.80
2022-08-03T19:06:15.883Z,1.92
2022-08-03T19:08:55.884Z,2.00
2022-08-03T19:11:28.079Z,1.90
2022-08-03T19:13:56.761Z,1.77
2022-08-03T19:16:35.660Z,1.83
2022-08-03T19:19:10.083Z,1.73
2022-08-03T19:21:37.288Z,1.85
2022-08-03T19:24:10.164Z,2.03
2022-08-03T19:26:39.697Z,1.70
2022-08-03T19:31:59.746Z,1.92
2022-08-03T19:34:29.126Z,1.70
2022-08-03T19:36:58.482Z,2.05
2022-08-03T19:39:26.107Z,1.70
2022-08-03T19:41:56.361Z,1.88
2022-08-03T19:44:26.729Z,1.77
2022-08-03T19:46:58.620Z,1.67
2022-08-03T19:50:04.748Z,1.75
2022-08-03T19:52:16.753Z,1.90
2022-08-03T19:54:53.890Z,1.80
2022-08-03T19:57:24.324Z,2.00
2022-08-03T19:59:53.521Z,1.95
2022-08-03T20:02:27.047Z,1.60
2022-08-03T20:05:00.048Z,1.90
2022-08-03T20:07:30.568Z,2.00
2022-08-03T20:09:59.709Z,1.80
2022-08-03T20:12:29.281Z,1.95
2022-08-03T20:14:57.623Z,2.15
2022-08-03T20:17:56.521Z,1.90
2022-08-03T20:20:12.682Z,2.17
2022-08-03T20:22:45.656Z,2.25
2022-08-03T20:25:20.844Z,1.90
2022-08-03T20:28:07.800Z,2.20
2022-08-03T20:30:39.367Z,1.50
2022-08-03T20:33:09.818Z,1.95
2022-08-03T20:35:36.782Z,1.90
2022-08-03T20:38:03.751Z,1.50
2022-08-03T20:40:30.841Z,1.95
2022-08-03T20:42:57.825Z,1.60
2022-08-03T20:45:58.417Z,1.50
2022-08-03T20:48:11.836Z,1.77
2022-08-03T20:50:43.938Z,1.27
2022-08-03T20:53:13.342Z,2.08
2022-08-03T20:55:47.483Z,1.65
2022-08-03T20:58:29.625Z,1.80
2022-08-03T21:00:57.613Z,1.50
2022-08-03T21:03:24.523Z,1.75
2022-08-03T21:06:10.458Z,1.83
2022-08-03T21:08:39.368Z,1.85
2022-08-03T21:11:17.239Z,1.83
2022-08-03T21:13:10.856Z,1.67
2022-08-03T21:13:58.420Z,1.35
2022-08-03T21:16:28.817Z,1.60
2022-08-03T21:18:59.758Z,1.60
2022-08-03T21:21:31.043Z,1.60
2022-08-03T21:23:59.553Z,1.55
2022-08-03T21:26:27.488Z,1.58
2022-08-03T21:28:56.602Z,1.70
2022-08-03T21:31:26.484Z,1.60
2022-08-03T21:34:00.463Z,1.80
2022-08-03T21:36:30.093Z,1.80
2022-08-03T21:38:57.842Z,2.17
2022-08-03T21:41:32.180Z,2.00
2022-08-03T21:44:00.177Z,1.90
2022-08-03T21:46:30.287Z,1.75
2022-08-03T21:49:51.860Z,1.80
2022-08-03T21:51:50.015Z,2.17
2022-08-03T21:54:18.042Z,1.42
2022-08-03T21:56:48.352Z,1.58
2022-08-03T21:59:20.322Z,1.50
2022-08-03T22:01:49.074Z,1.70
2022-08-03T22:04:53.549Z,1.58
2022-08-03T22:07:08.272Z,1.80
2022-08-03T22:09:36.377Z,1.80
2022-08-03T22:12:03.845Z,1.83
2022-08-03T22:14:32.820Z,1.70
2022-08-03T22:17:06.243Z,1.35
2022-08-03T22:19:34.185Z,1.67
2022-08-03T22:22:06.120Z,1.70
2022-08-03T22:24:35.582Z,1.83
2022-08-03T22:27:22.290Z,1.70
2022-08-03T22:29:51.047Z,2.03
2022-08-03T22:32:18.213Z,1.38
2022-08-03T22:34:46.638Z,1.70
2022-08-03T22:37:16.236Z,1.50
2022-08-03T22:39:44.711Z,1.70
2022-08-03T22:42:12.583Z,2.00
2022-08-03T22:44:40.033Z,1.70
2022-08-03T22:47:07.496Z,1.70
2022-08-03T22:49:35.351Z,1.50
2022-08-03T22:52:02.333Z,1.75
2022-08-03T22:54:32.015Z,1.92
2022-08-03T22:56:58.940Z,1.70
2022-08-03T22:59:39.018Z,1.92
2022-08-03T23:02:21.199Z,2.08
2022-08-03T23:04:53.518Z,1.45
2022-08-03T23:07:49.376Z,1.80
2022-08-03T23:10:16.416Z,1.85
2022-08-03T23:12:45.335Z,1.80
2022-08-03T23:15:13.335Z,1.48
2022-08-03T23:17:58.067Z,2.20
2022-08-03T23:20:27.030Z,1.85
2022-08-03T23:22:57.793Z,1.48
2022-08-03T23:25:25.024Z,1.90
2022-08-03T23:28:04.632Z,1.75
2022-08-03T23:30:34.950Z,1.90
2022-08-03T23:33:03.061Z,1.50
2022-08-03T23:36:17.238Z,1.23
2022-08-03T23:38:36.718Z,1.60
2022-08-03T23:41:05.081Z,2.13
2022-08-03T23:43:51.439Z,2.67
2022-08-03T23:46:21.649Z,1.77
2022-08-03T23:48:48.531Z,1.83
2022-08-03T23:51:30.234Z,1.50
2022-08-03T23:54:08.672Z,1.60
2022-08-03T23:56:44.359Z,1.52
2022-08-03T23:59:17.049Z,1.70
